createdAt,value
2019-05-22T00:02:35.505Z,16.40
2019-05-22T00:05:11.228Z,13.08
2019-05-22T00:07:36.274Z,10.48
2019-05-22T00:10:01.536Z,11.38
2019-05-22T00:12:25.437Z,11.88
2019-05-22T00:14:50.793Z,11.03
2019-05-22T00:17:15.423Z,12.25
2019-05-22T00:19:40.694Z,14.40
2019-05-22T00:22:07.465Z,14.10
2019-05-22T00:24:32.383Z,12.93
2019-05-22T00:26:55.885Z,12.90
2019-05-22T00:29:22.251Z,12.98
2019-05-22T00:31:46.067Z,11.18
2019-05-22T00:34:11.533Z,11.15
2019-05-22T00:36:35.414Z,14.73
2019-05-22T00:39:00.991Z,14.85
2019-05-22T00:41:25.020Z,15.53
2019-05-22T00:43:51.739Z,17.00
2019-05-22T00:46:19.916Z,14.65
2019-05-22T00:48:45.271Z,14.47
2019-05-22T00:51:11.154Z,15.48
2019-05-22T00:53:36.515Z,17.12
2019-05-22T00:56:05.813Z,17.05
2019-05-22T00:58:33.830Z,16.67
2019-05-22T01:01:04.396Z,14.47
2019-05-22T01:03:29.677Z,18.80
2019-05-22T01:05:54.981Z,18.42
2019-05-22T01:08:20.517Z,16.80
2019-05-22T01:10:47.988Z,15.10
2019-05-22T01:13:12.064Z,21.35
2019-05-22T01:15:37.620Z,18.12
2019-05-22T01:18:05.992Z,20.62
2019-05-22T01:20:30.404Z,17.60
2019-05-22T01:22:59.245Z,19.15
2019-05-22T01:25:24.611Z,17.90
2019-05-22T01:27:51.997Z,21.40
2019-05-22T01:30:19.401Z,18.70
2019-05-22T01:32:44.701Z,20.00
2019-05-22T01:35:10.222Z,20.43
2019-05-22T01:37:36.906Z,24.72
2019-05-22T01:40:05.378Z,23.15
2019-05-22T01:42:33.610Z,24.30
2019-05-22T01:45:06.245Z,21.00
2019-05-22T01:47:40.619Z,25.17
2019-05-22T01:50:06.718Z,27.32
2019-05-22T01:52:30.720Z,19.48
2019-05-22T01:54:55.511Z,26.02
2019-05-22T01:57:20.756Z,23.62
2019-05-22T01:59:45.229Z,21.93
2019-05-22T02:02:09.736Z,22.73
2019-05-22T02:04:34.443Z,22.30
2019-05-22T02:06:58.391Z,21.35
2019-05-22T02:09:31.505Z,23.98
2019-05-22T02:12:08.802Z,25.62
2019-05-22T02:14:32.878Z,22.67
2019-05-22T02:16:58.149Z,25.70
2019-05-22T02:19:22.631Z,23.38
2019-05-22T02:21:47.767Z,24.70
2019-05-22T02:24:11.843Z,23.38
2019-05-22T02:26:37.263Z,31.95
2019-05-22T02:29:02.801Z,24.95
2019-05-22T02:31:26.732Z,27.48
2019-05-22T02:34:07.236Z,29.77
2019-05-22T02:36:33.012Z,28.52
2019-05-22T02:38:57.414Z,26.45
2019-05-22T02:41:21.816Z,28.20
2019-05-22T02:43:45.584Z,27.52
2019-05-22T02:46:09.216Z,26.73
2019-05-22T02:48:33.153Z,29.52
2019-05-22T02:50:58.896Z,26.25
2019-05-22T02:53:23.539Z,25.17
2019-05-22T02:55:48.773Z,26.90
2019-05-22T02:58:13.232Z,27.42
2019-05-22T03:00:51.917Z,29.02
2019-05-22T03:03:15.477Z,24.37
2019-05-22T03:05:40.014Z,26.23
2019-05-22T03:08:04.307Z,27.85
2019-05-22T03:10:29.848Z,26.10
2019-05-22T03:12:53.907Z,25.05
2019-05-22T03:15:18.139Z,27.45
2019-05-22T03:17:43.596Z,25.57
2019-05-22T03:20:13.182Z,26.60
2019-05-22T03:23:01.159Z,28.38
2019-05-22T03:25:28.068Z,25.55
2019-05-22T03:27:52.949Z,27.87
2019-05-22T03:30:32.921Z,27.55
2019-05-22T03:32:57.123Z,29.40
2019-05-22T03:35:22.739Z,28.75
2019-05-22T03:37:47.643Z,26.23
2019-05-22T03:40:12.817Z,22.30
2019-05-22T03:42:37.554Z,26.05
2019-05-22T03:45:02.368Z,24.50
2019-05-22T03:47:26.874Z,28.17
2019-05-22T03:49:51.062Z,23.55
2019-05-22T03:52:16.647Z,24.95
2019-05-22T03:54:42.082Z,25.68
2019-05-22T03:57:06.951Z,27.45
2019-05-22T03:59:30.583Z,26.40
2019-05-22T04:01:55.807Z,27.13
2019-05-22T04:04:34.467Z,25.65
2019-05-22T04:06:58.330Z,24.55
2019-05-22T04:09:23.798Z,27.07
2019-05-22T04:11:47.698Z,24.43
2019-05-22T04:14:11.828Z,21.57
2019-05-22T04:16:35.822Z,22.73
2019-05-22T04:19:00.742Z,22.25
2019-05-22T04:21:25.063Z,23.10
2019-05-22T04:23:48.687Z,19.62
2019-05-22T04:26:13.990Z,20.40
2019-05-22T04:28:50.096Z,19.73
2019-05-22T04:31:13.772Z,18.52
2019-05-22T04:33:37.639Z,20.02
2019-05-22T04:36:04.862Z,19.95
2019-05-22T04:38:29.032Z,18.62
2019-05-22T04:40:54.486Z,18.87
2019-05-22T04:43:20.830Z,18.35
2019-05-22T04:45:45.064Z,19.60
2019-05-22T04:48:08.740Z,17.95
2019-05-22T04:50:32.501Z,17.50
2019-05-22T04:52:56.674Z,17.80
2019-05-22T04:55:21.132Z,15.53
2019-05-22T04:57:44.688Z,16.65
2019-05-22T05:00:10.859Z,17.55
2019-05-22T05:02:34.648Z,17.10
2019-05-22T05:04:59.354Z,15.72
2019-05-22T05:07:24.133Z,16.50
2019-05-22T05:09:47.688Z,16.32
2019-05-22T05:12:11.549Z,19.07
2019-05-22T05:14:35.740Z,19.02
2019-05-22T05:16:59.307Z,21.60
2019-05-22T05:19:23.225Z,18.37
2019-05-22T05:21:47.005Z,16.27
2019-05-22T05:24:10.978Z,17.50
2019-05-22T05:26:36.169Z,16.00
2019-05-22T05:29:00.253Z,15.45
2019-05-22T05:31:24.063Z,16.12
2019-05-22T05:33:59.478Z,14.13
2019-05-22T05:36:23.311Z,13.83
2019-05-22T05:38:47.177Z,15.45
2019-05-22T05:41:10.877Z,14.83
2019-05-22T05:43:35.064Z,14.30
2019-05-22T05:45:58.707Z,14.80
2019-05-22T05:48:24.080Z,13.28
2019-05-22T05:51:08.885Z,12.10
2019-05-22T05:53:37.149Z,12.58
2019-05-22T05:56:13.732Z,9.90
2019-05-22T05:58:38.504Z,12.30
2019-05-22T06:01:07.725Z,12.13
2019-05-22T06:03:38.625Z,8.55
2019-05-22T06:06:05.537Z,13.18
2019-05-22T06:08:29.305Z,10.30
2019-05-22T06:10:55.989Z,10.28
2019-05-22T06:13:20.338Z,6.75
2019-05-22T06:16:05.437Z,7.60
2019-05-22T06:18:34.980Z,8.78
2019-05-22T06:21:03.782Z,7.92
2019-05-22T06:23:32.066Z,6.62
2019-05-22T06:25:58.352Z,6.95
2019-05-22T06:28:23.290Z,7.05
2019-05-22T06:30:47.574Z,7.87
2019-05-22T06:33:19.925Z,7.17
2019-05-22T06:35:45.570Z,5.58
2019-05-22T06:38:15.032Z,5.30
2019-05-22T06:40:38.976Z,5.95
2019-05-22T06:43:25.266Z,5.12
2019-05-22T06:45:48.901Z,5.95
2019-05-22T06:48:12.778Z,5.47
2019-05-22T06:50:36.374Z,6.17
2019-05-22T06:53:09.349Z,5.10
2019-05-22T06:55:25.767Z,6.05
2019-05-22T06:57:49.294Z,6.83
2019-05-22T07:00:15.439Z,10.20
2019-05-22T07:02:39.223Z,5.92
2019-05-22T07:05:03.642Z,7.03
2019-05-22T07:07:27.728Z,6.12
2019-05-22T07:09:52.644Z,7.00
2019-05-22T07:12:20.062Z,8.50
2019-05-22T07:14:49.427Z,9.60
2019-05-22T07:17:15.224Z,11.48
2019-05-22T07:19:39.876Z,8.80
2019-05-22T07:22:04.672Z,8.68
2019-05-22T07:24:29.340Z,9.05
2019-05-22T07:26:53.709Z,10.63
2019-05-22T07:29:17.962Z,10.90
2019-05-22T07:31:42.066Z,10.58
2019-05-22T07:34:06.564Z,9.48
2019-05-22T07:36:32.984Z,9.95
2019-05-22T07:38:56.679Z,11.30
2019-05-22T07:41:20.579Z,12.95
2019-05-22T07:43:44.280Z,11.43
2019-05-22T07:46:07.870Z,11.50
2019-05-22T07:48:31.610Z,10.65
2019-05-22T07:50:56.829Z,11.55
2019-05-22T07:53:20.529Z,10.50
2019-05-22T07:55:44.619Z,11.25
2019-05-22T07:58:16.387Z,13.38
2019-05-22T08:00:48.376Z,12.20
2019-05-22T08:03:12.630Z,11.70
2019-05-22T08:05:39.474Z,13.65
2019-05-22T08:08:04.142Z,15.83
2019-05-22T08:10:28.198Z,13.08
2019-05-22T08:12:52.628Z,12.68
2019-05-22T08:15:18.042Z,14.35
2019-05-22T08:17:42.205Z,13.95
2019-05-22T08:20:06.472Z,13.68
2019-05-22T08:22:30.632Z,11.88
2019-05-22T08:24:54.422Z,12.45
2019-05-22T08:27:19.872Z,15.38
2019-05-22T08:29:43.537Z,11.90
2019-05-22T08:32:08.293Z,17.50
2019-05-22T08:34:32.279Z,12.07
2019-05-22T08:36:56.333Z,12.63
2019-05-22T08:39:20.600Z,10.18
2019-05-22T08:41:44.429Z,14.58
2019-05-22T08:44:17.589Z,11.20
2019-05-22T08:46:34.701Z,11.28
2019-05-22T08:48:58.308Z,16.05
2019-05-22T08:51:22.129Z,18.67
2019-05-22T08:53:48.618Z,11.63
2019-05-22T08:56:13.271Z,10.63
2019-05-22T08:58:39.405Z,12.43
2019-05-22T09:01:03.777Z,14.70
2019-05-22T09:03:27.825Z,11.75
2019-05-22T09:05:52.163Z,10.90
2019-05-22T09:08:16.112Z,12.88
2019-05-22T09:10:39.716Z,10.95
2019-05-22T09:13:04.282Z,11.33
2019-05-22T09:15:29.266Z,10.65
2019-05-22T09:17:52.788Z,12.65
2019-05-22T09:20:17.248Z,12.00
2019-05-22T09:22:41.701Z,12.50
2019-05-22T09:25:10.119Z,11.25
2019-05-22T09:27:34.818Z,11.05
2019-05-22T09:29:58.340Z,12.98
2019-05-22T09:32:21.986Z,12.25
2019-05-22T09:34:46.533Z,10.35
2019-05-22T09:37:11.062Z,13.30
2019-05-22T09:39:34.641Z,10.98
2019-05-22T09:41:59.239Z,13.50
2019-05-22T09:44:22.888Z,11.22
2019-05-22T09:46:47.026Z,11.60
2019-05-22T09:49:11.224Z,10.78
2019-05-22T09:51:34.810Z,10.40
2019-05-22T09:53:58.874Z,13.80
2019-05-22T09:56:22.661Z,12.95
2019-05-22T09:58:47.036Z,16.05
2019-05-22T10:01:12.160Z,12.70
2019-05-22T10:03:36.547Z,11.88
2019-05-22T10:06:01.031Z,24.85
2019-05-22T10:08:24.684Z,27.95
2019-05-22T10:10:48.692Z,16.48
2019-05-22T10:13:12.549Z,12.47
2019-05-22T10:15:36.464Z,18.17
2019-05-22T10:18:01.026Z,11.43
2019-05-22T10:20:24.602Z,10.28
2019-05-22T10:22:48.163Z,11.97
2019-05-22T10:25:16.477Z,10.48
2019-05-22T10:27:39.290Z,9.78
2019-05-22T10:30:04.421Z,8.50
2019-05-22T10:32:32.346Z,11.78
2019-05-22T10:34:57.801Z,9.63
2019-05-22T10:37:22.044Z,9.68
2019-05-22T10:39:45.950Z,11.00
2019-05-22T10:42:09.731Z,10.65
2019-05-22T10:44:33.415Z,10.43
2019-05-22T10:46:57.292Z,9.83
2019-05-22T10:49:21.223Z,8.73
2019-05-22T10:51:45.154Z,11.50
2019-05-22T10:54:08.775Z,9.35
2019-05-22T10:56:32.872Z,9.95
2019-05-22T10:58:56.734Z,8.68
2019-05-22T11:01:21.041Z,10.78
2019-05-22T11:03:45.148Z,13.30
2019-05-22T11:06:08.905Z,10.88
2019-05-22T11:08:34.430Z,12.07
2019-05-22T11:10:58.191Z,10.08
2019-05-22T11:13:22.695Z,11.50
2019-05-22T11:15:46.637Z,9.78
2019-05-22T11:18:10.672Z,8.48
2019-05-22T11:20:35.703Z,12.05
2019-05-22T11:22:59.528Z,10.25
2019-05-22T11:25:23.367Z,9.90
2019-05-22T11:27:47.034Z,10.95
2019-05-22T11:30:16.354Z,10.03
2019-05-22T11:32:40.398Z,10.00
2019-05-22T11:35:05.595Z,9.35
2019-05-22T11:37:29.396Z,9.58
2019-05-22T11:39:52.945Z,11.33
2019-05-22T11:42:16.865Z,9.98
2019-05-22T11:44:40.929Z,10.68
2019-05-22T11:47:06.438Z,10.50
2019-05-22T11:49:29.995Z,10.75
2019-05-22T11:51:53.513Z,9.33
2019-05-22T11:54:17.159Z,13.03
2019-05-22T11:56:40.814Z,9.48
2019-05-22T11:59:05.977Z,9.20
2019-05-22T12:01:30.027Z,10.03
2019-05-22T12:03:54.207Z,10.95
2019-05-22T12:06:18.140Z,7.83
2019-05-22T12:08:42.529Z,10.58
2019-05-22T12:11:06.781Z,10.90
2019-05-22T12:13:31.732Z,8.35
2019-05-22T12:15:57.498Z,9.05
2019-05-22T12:18:21.777Z,9.98
2019-05-22T12:20:45.581Z,8.98
2019-05-22T12:23:09.419Z,14.60
2019-05-22T12:25:34.798Z,8.78
2019-05-22T12:27:59.048Z,8.85
2019-05-22T12:30:23.702Z,8.85
2019-05-22T12:32:47.235Z,9.43
2019-05-22T12:35:13.042Z,16.67
2019-05-22T12:37:36.843Z,18.52
2019-05-22T12:40:01.522Z,8.65
2019-05-22T12:42:26.370Z,17.20
2019-05-22T12:44:50.553Z,11.18
2019-05-22T12:47:15.714Z,10.60
2019-05-22T12:49:40.426Z,9.63
2019-05-22T12:52:05.459Z,9.55
2019-05-22T12:54:45.246Z,10.88
2019-05-22T12:56:55.856Z,11.12
2019-05-22T12:59:20.432Z,11.20
2019-05-22T13:01:46.630Z,11.15
2019-05-22T13:04:10.622Z,12.70
2019-05-22T13:06:35.082Z,10.50
2019-05-22T13:09:00.380Z,12.58
2019-05-22T13:11:25.256Z,10.55
2019-05-22T13:13:48.843Z,11.78
2019-05-22T13:16:13.655Z,12.13
2019-05-22T13:18:39.182Z,9.80
2019-05-22T13:21:03.865Z,11.15
2019-05-22T13:23:30.804Z,11.75
2019-05-22T13:25:54.870Z,9.33
2019-05-22T13:28:19.911Z,9.23
2019-05-22T13:30:46.777Z,8.73
2019-05-22T13:33:13.719Z,10.70
2019-05-22T13:35:37.321Z,8.15
2019-05-22T13:38:01.125Z,12.07
2019-05-22T13:40:27.967Z,6.92
2019-05-22T13:42:52.161Z,8.80
2019-05-22T13:45:28.841Z,8.23
2019-05-22T13:47:43.153Z,6.85
2019-05-22T13:50:09.351Z,7.55
2019-05-22T13:52:34.672Z,7.62
2019-05-22T13:54:58.599Z,8.10
2019-05-22T13:57:22.535Z,5.87
2019-05-22T13:59:46.357Z,6.42
2019-05-22T14:02:10.512Z,5.78
2019-05-22T14:04:34.396Z,6.87
2019-05-22T14:06:58.478Z,6.22
2019-05-22T14:09:22.730Z,6.20
2019-05-22T14:11:46.807Z,7.20
2019-05-22T14:14:10.857Z,5.85
2019-05-22T14:16:48.202Z,5.78
2019-05-22T14:19:00.664Z,5.62
2019-05-22T14:21:24.216Z,6.03
2019-05-22T14:23:47.739Z,7.97
2019-05-22T14:26:11.408Z,4.92
2019-05-22T14:28:37.149Z,6.85
2019-05-22T14:31:00.786Z,9.70
2019-05-22T14:33:27.964Z,6.20
2019-05-22T14:35:52.610Z,12.20
2019-05-22T14:38:16.631Z,7.78
2019-05-22T14:40:40.857Z,8.23
2019-05-22T14:43:04.371Z,8.83
2019-05-22T14:45:28.302Z,11.25
2019-05-22T14:47:52.497Z,13.72
2019-05-22T14:50:17.251Z,50.38
2019-05-22T14:52:40.881Z,12.50
2019-05-22T14:55:06.657Z,27.32
2019-05-22T14:57:30.321Z,13.40
2019-05-22T14:59:54.005Z,11.75
2019-05-22T15:02:18.311Z,31.77
2019-05-22T15:04:42.814Z,21.07
2019-05-22T15:07:07.888Z,30.08
2019-05-22T15:09:32.107Z,7.92
2019-05-22T15:11:55.771Z,6.97
2019-05-22T15:14:19.288Z,9.28
2019-05-22T15:16:42.955Z,6.83
2019-05-22T15:19:06.606Z,8.93
2019-05-22T15:21:30.625Z,6.10
2019-05-22T15:23:55.249Z,8.45
2019-05-22T15:26:18.832Z,13.68
2019-05-22T15:28:42.680Z,6.87
2019-05-22T15:31:06.309Z,5.92
2019-05-22T15:33:30.683Z,5.83
2019-05-22T15:35:54.749Z,5.85
2019-05-22T15:38:19.297Z,7.17
2019-05-22T15:40:43.333Z,5.65
2019-05-22T15:43:09.649Z,6.67
2019-05-22T15:45:35.554Z,5.50
2019-05-22T15:48:02.414Z,5.70
2019-05-22T15:50:28.947Z,7.42
2019-05-22T15:52:59.941Z,8.33
2019-05-22T15:55:26.584Z,6.37
2019-05-22T15:57:50.748Z,6.40
2019-05-22T16:00:19.234Z,6.65
2019-05-22T16:02:46.474Z,4.53
2019-05-22T16:05:12.807Z,6.33
2019-05-22T16:07:39.355Z,4.60
2019-05-22T16:10:03.964Z,5.75
2019-05-22T16:12:28.405Z,12.10
2019-05-22T16:14:53.336Z,7.55
2019-05-22T16:17:18.847Z,4.50
2019-05-22T16:19:43.918Z,10.20
2019-05-22T16:22:10.410Z,7.83
2019-05-22T16:24:35.833Z,5.87
2019-05-22T16:27:00.671Z,8.50
2019-05-22T16:29:25.601Z,7.37
2019-05-22T16:31:50.773Z,8.08
2019-05-22T16:34:15.524Z,9.00
2019-05-22T16:36:39.415Z,13.43
2019-05-22T16:39:04.455Z,9.50
2019-05-22T16:41:29.600Z,8.55
2019-05-22T16:43:54.668Z,7.67
2019-05-22T16:46:21.230Z,6.95
2019-05-22T16:48:48.250Z,6.75
2019-05-22T16:51:14.527Z,7.25
2019-05-22T16:53:38.706Z,6.53
2019-05-22T16:56:02.592Z,5.92
2019-05-22T16:58:28.118Z,6.35
2019-05-22T17:00:56.482Z,7.40
2019-05-22T17:03:19.159Z,7.25
2019-05-22T17:05:48.409Z,7.65
2019-05-22T17:08:17.238Z,6.62
2019-05-22T17:10:43.726Z,5.58
2019-05-22T17:13:12.256Z,6.62
2019-05-22T17:15:37.695Z,5.72
2019-05-22T17:18:06.078Z,6.80
2019-05-22T17:20:30.587Z,5.08
2019-05-22T17:22:54.979Z,5.75
2019-05-22T17:25:20.765Z,7.05
2019-05-22T17:27:45.697Z,5.97
2019-05-22T17:30:11.700Z,5.08
2019-05-22T17:32:35.706Z,5.35
2019-05-22T17:35:05.355Z,6.50
2019-05-22T17:37:31.829Z,4.90
2019-05-22T17:39:55.731Z,4.70
2019-05-22T17:42:23.559Z,4.75
2019-05-22T17:44:49.716Z,5.90
2019-05-22T17:47:13.545Z,6.30
2019-05-22T17:49:37.159Z,5.90
2019-05-22T17:52:02.286Z,5.28
2019-05-22T17:54:26.436Z,6.90
2019-05-22T17:56:50.984Z,4.05
2019-05-22T17:59:15.602Z,12.07
2019-05-22T18:01:40.367Z,5.35
2019-05-22T18:04:05.439Z,5.80
2019-05-22T18:06:32.287Z,5.72
2019-05-22T18:08:56.167Z,5.60
2019-05-22T18:11:20.080Z,6.72
2019-05-22T18:14:02.094Z,10.80
2019-05-22T18:16:26.174Z,7.60
2019-05-22T18:18:49.763Z,4.80
2019-05-22T18:21:13.789Z,5.87
2019-05-22T18:23:37.384Z,5.35
2019-05-22T18:26:01.337Z,4.22
2019-05-22T18:28:25.065Z,4.42
2019-05-22T18:30:48.837Z,7.83
2019-05-22T18:33:13.804Z,3.80
2019-05-22T18:35:37.404Z,6.45
2019-05-22T18:38:04.608Z,4.30
2019-05-22T18:40:28.637Z,5.83
2019-05-22T18:42:53.616Z,4.10
2019-05-22T18:45:20.571Z,4.83
2019-05-22T18:47:49.140Z,5.53
2019-05-22T18:50:14.409Z,4.45
2019-05-22T18:52:44.482Z,4.55
2019-05-22T18:55:12.034Z,6.03
2019-05-22T18:57:35.713Z,4.78
2019-05-22T19:00:03.849Z,5.05
2019-05-22T19:02:25.055Z,9.45
2019-05-22T19:04:48.558Z,8.75
2019-05-22T19:07:12.331Z,6.87
2019-05-22T19:09:36.007Z,5.50
2019-05-22T19:11:59.579Z,6.42
2019-05-22T19:14:23.509Z,6.30
2019-05-22T19:16:47.246Z,7.42
2019-05-22T19:19:10.889Z,5.65
2019-05-22T19:21:34.604Z,7.85
2019-05-22T19:23:58.405Z,7.70
2019-05-22T19:26:22.321Z,8.05
2019-05-22T19:28:46.475Z,6.72
2019-05-22T19:31:10.180Z,8.63
2019-05-22T19:33:33.997Z,11.95
2019-05-22T19:35:57.798Z,8.08
2019-05-22T19:38:22.920Z,6.37
2019-05-22T19:40:47.415Z,9.98
2019-05-22T19:43:11.862Z,9.25
2019-05-22T19:45:35.870Z,8.18
2019-05-22T19:48:00.079Z,12.68
2019-05-22T19:50:25.412Z,11.75
2019-05-22T19:52:49.232Z,14.03
2019-05-22T19:55:14.208Z,11.12
2019-05-22T19:57:38.231Z,10.30
2019-05-22T20:00:01.822Z,17.10
2019-05-22T20:02:26.831Z,10.00
2019-05-22T20:04:51.185Z,15.78
2019-05-22T20:07:17.656Z,8.80
2019-05-22T20:09:41.892Z,11.75
2019-05-22T20:12:07.463Z,13.95
2019-05-22T20:14:31.080Z,11.38
2019-05-22T20:16:55.100Z,13.03
2019-05-22T20:19:18.996Z,9.18
2019-05-22T20:21:42.953Z,7.55
2019-05-22T20:24:07.255Z,9.63
2019-05-22T20:26:30.959Z,14.15
2019-05-22T20:28:55.366Z,14.68
2019-05-22T20:31:19.096Z,5.72
2019-05-22T20:33:42.778Z,11.12
2019-05-22T20:36:07.617Z,9.90
2019-05-22T20:38:31.233Z,9.08
2019-05-22T20:40:54.726Z,9.35
2019-05-22T20:43:18.337Z,10.68
2019-05-22T20:45:43.064Z,11.43
2019-05-22T20:48:13.966Z,9.78
2019-05-22T20:50:38.411Z,9.18
2019-05-22T20:53:02.645Z,6.62
2019-05-22T20:55:26.865Z,7.83
2019-05-22T20:57:50.835Z,8.98
2019-05-22T21:00:16.703Z,7.70
2019-05-22T21:02:40.775Z,6.67
2019-05-22T21:05:07.339Z,6.55
2019-05-22T21:07:36.147Z,7.95
2019-05-22T21:10:00.086Z,7.03
2019-05-22T21:12:26.105Z,7.25
2019-05-22T21:14:50.205Z,8.83
2019-05-22T21:17:16.065Z,7.67
2019-05-22T21:19:41.446Z,7.83
2019-05-22T21:22:06.863Z,12.47
2019-05-22T21:24:31.007Z,8.25
2019-05-22T21:26:57.841Z,6.92
2019-05-22T21:29:21.638Z,8.35
2019-05-22T21:31:47.807Z,10.75
2019-05-22T21:34:11.506Z,10.78
2019-05-22T21:36:36.134Z,7.65
2019-05-22T21:39:00.531Z,9.53
2019-05-22T21:41:24.307Z,8.20
2019-05-22T21:43:48.441Z,5.10
2019-05-22T21:46:12.328Z,8.45
2019-05-22T21:48:36.363Z,8.43
2019-05-22T21:51:01.585Z,6.72
2019-05-22T21:53:26.272Z,8.18
2019-05-22T21:56:03.692Z,7.15
2019-05-22T21:58:16.459Z,5.12
2019-05-22T22:00:44.699Z,6.37
2019-05-22T22:03:10.384Z,5.50
2019-05-22T22:05:34.332Z,9.08
2019-05-22T22:07:58.503Z,12.03
2019-05-22T22:10:22.344Z,10.58
2019-05-22T22:12:48.140Z,9.03
2019-05-22T22:15:13.204Z,8.13
2019-05-22T22:17:37.050Z,7.47
2019-05-22T22:20:01.382Z,5.28
2019-05-22T22:22:27.197Z,5.05
2019-05-22T22:24:52.535Z,8.93
2019-05-22T22:27:17.385Z,7.50
2019-05-22T22:29:41.713Z,8.08
2019-05-22T22:32:10.446Z,9.78
2019-05-22T22:34:36.189Z,7.60
2019-05-22T22:37:00.301Z,8.23
2019-05-22T22:39:25.855Z,10.65
2019-05-22T22:41:51.060Z,7.17
2019-05-22T22:44:15.401Z,8.53
2019-05-22T22:46:41.775Z,10.05
2019-05-22T22:49:06.504Z,9.95
2019-05-22T22:51:31.574Z,8.90
2019-05-22T22:53:57.694Z,7.83
2019-05-22T22:56:22.496Z,9.30
2019-05-22T22:58:46.748Z,10.35
2019-05-22T23:01:15.069Z,7.00
2019-05-22T23:03:39.824Z,7.80
2019-05-22T23:06:03.774Z,6.33
2019-05-22T23:08:30.721Z,8.93
2019-05-22T23:10:54.962Z,9.48
2019-05-22T23:13:18.539Z,7.58
2019-05-22T23:15:42.140Z,10.13
2019-05-22T23:18:06.469Z,7.42
2019-05-22T23:20:29.147Z,11.00
2019-05-22T23:22:51.764Z,7.17
2019-05-22T23:25:17.294Z,7.15
2019-05-22T23:27:41.807Z,7.45
2019-05-22T23:30:10.933Z,7.03
2019-05-22T23:32:34.966Z,7.95
2019-05-22T23:34:59.625Z,7.50
2019-05-22T23:37:24.081Z,6.70
2019-05-22T23:39:48.388Z,6.75
2019-05-22T23:42:16.222Z,6.58
2019-05-22T23:44:41.266Z,5.75
2019-05-22T23:47:05.587Z,7.62
2019-05-22T23:49:30.558Z,8.33
2019-05-22T23:51:54.502Z,6.05
2019-05-22T23:54:18.517Z,12.23
2019-05-22T23:56:42.045Z,10.03
2019-05-22T23:59:06.677Z,7.20
